createdAt,value
2022-11-17T00:00:44.020Z,98303.19
2022-11-17T00:03:16.042Z,98309.69
2022-11-17T00:05:44.564Z,98311.72
2022-11-17T00:08:12.947Z,98312.72
2022-11-17T00:10:41.303Z,98325.53
2022-11-17T00:13:28.609Z,98325.38
2022-11-17T00:15:58.374Z,98333.09
2022-11-17T00:18:43.848Z,98331.31
2022-11-17T00:21:23.989Z,98330.75
2022-11-17T00:23:52.543Z,98335.06
2022-11-17T00:26:22.246Z,98331.44
2022-11-17T00:28:53.787Z,98339.78
2022-11-17T00:31:41.357Z,98337.97
2022-11-17T00:34:12.551Z,98339.66
2022-11-17T00:36:43.900Z,98345.53
2022-11-17T00:39:12.729Z,98356.03
2022-11-17T00:41:41.330Z,98356.50
2022-11-17T00:44:09.748Z,98355.31
2022-11-17T00:46:39.925Z,98360.75
2022-11-17T00:49:09.393Z,98354.13
2022-11-17T00:51:38.588Z,98364.00
2022-11-17T00:54:08.724Z,98370.72
2022-11-17T00:56:37.181Z,98367.72
2022-11-17T00:59:05.797Z,98368.34
2022-11-17T01:01:34.117Z,98366.31
2022-11-17T01:04:04.750Z,98369.16
2022-11-17T01:06:35.049Z,98370.38
2022-11-17T01:09:05.309Z,98377.44
2022-11-17T01:11:33.463Z,98371.59
2022-11-17T01:14:02.945Z,98361.91
2022-11-17T01:16:32.692Z,98356.28
2022-11-17T01:19:02.227Z,98359.91
2022-11-17T01:21:32.904Z,98359.34
2022-11-17T01:24:02.723Z,98357.91
2022-11-17T01:26:32.803Z,98363.16
2022-11-17T01:29:01.487Z,98363.56
2022-11-17T01:31:31.909Z,98365.38
2022-11-17T01:34:00.247Z,98367.22
2022-11-17T01:36:30.551Z,98373.47
2022-11-17T01:39:00.175Z,98373.47
2022-11-17T01:41:29.972Z,98370.03
2022-11-17T01:43:59.761Z,98361.97
2022-11-17T01:46:33.760Z,98365.38
2022-11-17T01:49:06.563Z,98373.69
2022-11-17T01:51:39.701Z,98373.09
2022-11-17T01:54:12.564Z,98379.34
2022-11-17T01:56:45.232Z,98376.94
2022-11-17T01:59:22.250Z,98386.63
2022-11-17T02:01:56.782Z,98383.41
2022-11-17T02:04:27.478Z,98390.47
2022-11-17T02:07:01.987Z,98391.50
2022-11-17T02:09:32.962Z,98390.31
2022-11-17T02:12:01.218Z,98394.34
2022-11-17T02:14:30.007Z,98398.56
2022-11-17T02:17:03.034Z,98399.59
2022-11-17T02:19:40.391Z,98402.44
2022-11-17T02:22:34.953Z,98406.88
2022-11-17T02:25:31.050Z,98409.31
2022-11-17T02:28:06.582Z,98409.31
2022-11-17T02:30:42.737Z,98411.34
2022-11-17T02:33:22.199Z,98420.22
2022-11-17T02:35:57.197Z,98420.22
2022-11-17T02:38:36.642Z,98430.72
2022-11-17T02:41:12.479Z,98425.47
2022-11-17T02:44:04.070Z,98420.63
2022-11-17T02:46:39.016Z,98433.72
2022-11-17T02:49:11.433Z,98433.94
2022-11-17T02:51:42.209Z,98437.59
2022-11-17T02:54:11.368Z,98445.88
2022-11-17T02:56:42.961Z,98440.63
2022-11-17T02:59:13.331Z,98437.00
2022-11-17T03:02:19.923Z,98447.50
2022-11-17T03:05:00.715Z,98441.25
2022-11-17T03:07:52.491Z,98456.38
2022-11-17T03:10:22.128Z,98453.56
2022-11-17T03:12:56.782Z,98458.19
2022-11-17T03:15:35.137Z,98457.00
2022-11-17T03:18:10.622Z,98465.88
2022-11-17T03:20:49.041Z,98461.66
2022-11-17T03:23:20.960Z,98467.28
2022-11-17T03:25:54.978Z,98463.47
2022-11-17T03:28:28.417Z,98464.28
2022-11-17T03:31:00.706Z,98462.50
2022-11-17T03:33:30.325Z,98465.91
2022-11-17T03:36:03.031Z,98476.41
2022-11-17T03:38:36.687Z,98479.63
2022-11-17T03:41:09.614Z,98479.63
2022-11-17T03:43:39.928Z,98474.00
2022-11-17T03:46:13.314Z,98486.47
2022-11-17T03:48:49.791Z,98493.31
2022-11-17T03:51:20.263Z,98487.66
2022-11-17T03:53:49.133Z,98499.75
2022-11-17T03:56:36.426Z,98489.88
2022-11-17T03:59:12.109Z,98486.84
2022-11-17T04:01:41.895Z,98487.66
2022-11-17T04:04:15.507Z,98497.69
2022-11-17T04:06:43.722Z,98499.50
2022-11-17T04:09:12.247Z,98501.53
2022-11-17T04:12:05.924Z,98501.72
2022-11-17T04:14:51.534Z,98507.38
2022-11-17T04:17:21.292Z,98511.59
2022-11-17T04:19:49.426Z,98516.03
2022-11-17T04:22:17.610Z,98520.03
2022-11-17T04:24:45.872Z,98524.09
2022-11-17T04:27:30.628Z,98525.91
2022-11-17T04:29:58.652Z,98539.59
2022-11-17T04:32:28.260Z,98534.34
2022-11-17T04:34:58.062Z,98540.81
2022-11-17T04:37:26.427Z,98544.44
2022-11-17T04:39:54.716Z,98545.66
2022-11-17T04:42:21.793Z,98554.09
2022-11-17T04:44:49.977Z,98545.44
2022-11-17T04:47:18.149Z,98546.03
2022-11-17T04:49:47.865Z,98558.16
2022-11-17T04:52:15.983Z,98549.28
2022-11-17T04:54:44.138Z,98570.25
2022-11-17T04:57:12.415Z,98565.38
2022-11-17T04:59:40.693Z,98561.59
2022-11-17T05:02:08.990Z,98570.41
2022-11-17T05:04:54.418Z,98569.22
2022-11-17T05:07:24.477Z,98561.00
2022-11-17T05:09:52.534Z,98571.63
2022-11-17T05:12:38.056Z,98575.06
2022-11-17T05:15:07.234Z,98572.25
2022-11-17T05:17:34.344Z,98574.47
2022-11-17T05:20:02.629Z,98573.44
2022-11-17T05:22:49.792Z,98570.84
2022-11-17T05:25:18.127Z,98583.94
2022-11-17T05:27:46.320Z,98579.31
2022-11-17T05:30:14.911Z,98586.38
2022-11-17T05:32:43.118Z,98589.78
2022-11-17T05:35:11.431Z,98589.59
2022-11-17T05:37:40.915Z,98586.16
2022-11-17T05:40:10.455Z,98592.41
2022-11-17T05:42:38.627Z,98601.28
2022-11-17T05:45:07.951Z,98597.47
2022-11-17T05:47:36.184Z,98592.03
2022-11-17T05:50:04.379Z,98596.88
2022-11-17T05:52:32.560Z,98594.88
2022-11-17T05:55:02.161Z,98596.47
2022-11-17T05:57:33.455Z,98591.66
2022-11-17T06:00:05.160Z,98594.28
2022-11-17T06:02:38.943Z,98590.63
2022-11-17T06:05:07.615Z,98589.44
2022-11-17T06:07:36.863Z,98585.81
2022-11-17T06:10:07.759Z,98594.31
2022-11-17T06:12:36.179Z,98596.50
2022-11-17T06:15:04.717Z,98596.72
2022-11-17T06:17:37.251Z,98606.38
2022-11-17T06:20:11.228Z,98603.78
2022-11-17T06:22:41.855Z,98603.78
2022-11-17T06:25:15.469Z,98603.78
2022-11-17T06:27:44.084Z,98603.78
2022-11-17T06:30:12.861Z,98601.75
2022-11-17T06:32:45.267Z,98597.94
2022-11-17T06:35:16.578Z,98597.50
2022-11-17T06:37:44.895Z,98598.94
2022-11-17T06:40:14.628Z,98595.31
2022-11-17T06:43:00.323Z,98595.94
2022-11-17T06:45:28.656Z,98594.28
2022-11-17T06:47:57.045Z,98598.94
2022-11-17T06:50:25.292Z,98586.84
2022-11-17T06:52:53.497Z,98585.44
2022-11-17T06:55:23.194Z,98594.69
2022-11-17T06:57:53.551Z,98589.88
2022-11-17T07:00:22.560Z,98594.09
2022-11-17T07:02:50.874Z,98597.31
2022-11-17T07:05:19.066Z,98594.47
2022-11-17T07:07:47.281Z,98602.97
2022-11-17T07:10:15.588Z,98606.97
2022-11-17T07:12:47.060Z,98607.41
2022-11-17T07:15:15.126Z,98608.00
2022-11-17T07:17:43.347Z,98605.38
2022-11-17T07:20:12.551Z,98611.03
2022-11-17T07:22:41.573Z,98606.19
2022-11-17T07:25:10.352Z,98612.22
2022-11-17T07:27:38.978Z,98606.97
2022-11-17T07:30:10.331Z,98610.41
2022-11-17T07:32:38.572Z,98608.81
2022-11-17T07:35:07.807Z,98618.25
2022-11-17T07:37:35.986Z,98626.13
2022-11-17T07:40:04.238Z,98620.69
2022-11-17T07:42:32.821Z,98622.28
2022-11-17T07:45:01.106Z,98622.50
2022-11-17T07:47:30.638Z,98635.38
2022-11-17T07:49:58.862Z,98630.16
2022-11-17T07:52:27.025Z,98631.16
2022-11-17T07:54:55.274Z,98625.91
2022-11-17T07:57:25.226Z,98635.38
2022-11-17T07:59:53.393Z,98643.03
2022-11-17T08:02:21.662Z,98646.03
2022-11-17T08:04:51.389Z,98658.09
2022-11-17T08:07:19.856Z,98644.41
2022-11-17T08:09:48.078Z,98653.06
2022-11-17T08:12:16.278Z,98649.66
2022-11-17T08:14:44.520Z,98648.81
2022-11-17T08:17:12.743Z,98654.47
2022-11-17T08:19:40.950Z,98665.75
2022-11-17T08:22:10.714Z,98656.06
2022-11-17T08:24:38.963Z,98658.91
2022-11-17T08:27:07.370Z,98659.69
2022-11-17T08:29:35.599Z,98662.91
2022-11-17T08:32:03.825Z,98664.94
2022-11-17T08:34:32.022Z,98665.75
2022-11-17T08:37:00.195Z,98659.47
2022-11-17T08:39:30.005Z,98659.69
2022-11-17T08:41:58.189Z,98669.78
2022-11-17T08:44:26.440Z,98666.75
2022-11-17T08:46:54.622Z,98675.41
2022-11-17T08:49:22.972Z,98679.19
2022-11-17T08:51:51.270Z,98678.59
2022-11-17T08:54:19.453Z,98681.38
2022-11-17T08:56:49.204Z,98676.97
2022-11-17T08:59:17.398Z,98676.34
2022-11-17T09:01:45.675Z,98675.34
2022-11-17T09:04:13.894Z,98677.75
2022-11-17T09:06:42.093Z,98682.19
2022-11-17T09:09:10.344Z,98686.03
2022-11-17T09:11:38.573Z,98688.66
2022-11-17T09:14:09.358Z,98682.06
2022-11-17T09:16:38.080Z,98689.75
2022-11-17T09:19:06.950Z,98688.72
2022-11-17T09:21:35.196Z,98699.19
2022-11-17T09:24:03.387Z,98696.38
2022-11-17T09:26:31.698Z,98687.53
2022-11-17T09:29:03.166Z,98699.03
2022-11-17T09:31:32.588Z,98704.88
2022-11-17T09:34:05.280Z,98705.91
2022-11-17T09:36:34.772Z,98703.28
2022-11-17T09:39:02.973Z,98715.00
2022-11-17T09:41:36.525Z,98712.59
2022-11-17T09:44:14.127Z,98715.78
2022-11-17T09:47:06.824Z,98714.22
2022-11-17T09:49:43.949Z,98723.53
2022-11-17T09:52:19.877Z,98737.22
2022-11-17T09:54:54.035Z,98742.47
2022-11-17T09:57:28.560Z,98748.69
2022-11-17T10:00:13.857Z,98749.75
2022-11-17T10:02:44.471Z,98739.25
2022-11-17T10:05:17.559Z,98757.81
2022-11-17T10:07:50.546Z,98747.19
2022-11-17T10:10:23.783Z,98741.97
2022-11-17T10:12:58.015Z,98748.03
2022-11-17T10:15:30.872Z,98741.38
2022-11-17T10:18:00.561Z,98752.69
2022-11-17T10:20:28.841Z,98747.88
2022-11-17T10:22:58.544Z,98748.88
2022-11-17T10:25:38.834Z,98756.34
2022-11-17T10:28:23.743Z,98750.91
2022-11-17T10:30:55.577Z,98749.09
2022-11-17T10:33:47.702Z,98752.34
2022-11-17T10:36:20.550Z,98754.38
2022-11-17T10:38:50.961Z,98754.75
2022-11-17T10:41:21.514Z,98757.97
2022-11-17T10:43:59.031Z,98769.28
2022-11-17T10:46:29.961Z,98773.13
2022-11-17T10:49:05.689Z,98762.00
2022-11-17T10:51:35.806Z,98775.72
2022-11-17T10:54:06.691Z,98775.06
2022-11-17T10:56:41.814Z,98784.31
2022-11-17T10:59:16.303Z,98785.94
2022-11-17T11:01:46.288Z,98790.94
2022-11-17T11:04:42.780Z,98783.84
2022-11-17T11:07:13.604Z,98792.09
2022-11-17T11:09:46.676Z,98793.91
2022-11-17T11:12:20.447Z,98791.69
2022-11-17T11:14:53.289Z,98788.03
2022-11-17T11:17:21.568Z,98799.97
2022-11-17T11:19:53.541Z,98791.69
2022-11-17T11:22:32.001Z,98794.91
2022-11-17T11:25:10.385Z,98798.13
2022-11-17T11:28:03.407Z,98802.78
2022-11-17T11:30:38.755Z,98811.09
2022-11-17T11:33:25.109Z,98815.16
2022-11-17T11:36:15.349Z,98821.81
2022-11-17T11:39:05.398Z,98814.16
2022-11-17T11:41:47.902Z,98817.00
2022-11-17T11:44:39.149Z,98820.03
2022-11-17T11:47:18.448Z,98825.91
2022-11-17T11:49:52.839Z,98826.13
2022-11-17T11:52:25.952Z,98826.53
2022-11-17T11:54:58.326Z,98833.22
2022-11-17T11:57:32.587Z,98830.22
2022-11-17T12:00:04.718Z,98825.75
2022-11-17T12:02:42.836Z,98832.22
2022-11-17T12:05:20.921Z,98830.44
2022-11-17T12:07:56.828Z,98820.31
2022-11-17T12:10:33.068Z,98830.63
2022-11-17T12:13:01.840Z,98835.06
2022-11-17T12:15:35.993Z,98828.63
2022-11-17T12:18:07.430Z,98828.63
2022-11-17T12:20:55.421Z,98829.84
2022-11-17T12:23:41.044Z,98830.84
2022-11-17T12:26:09.561Z,98836.09
2022-11-17T12:28:39.997Z,98834.69
2022-11-17T12:31:10.892Z,98835.31
2022-11-17T12:34:22.716Z,98842.81
2022-11-17T12:37:23.134Z,98846.41
2022-11-17T12:40:44.660Z,98844.03
2022-11-17T12:43:24.005Z,98841.19
2022-11-17T12:46:05.769Z,98840.38
2022-11-17T12:48:35.739Z,98838.34
2022-11-17T12:51:11.760Z,98849.69
2022-11-17T12:53:55.034Z,98843.81
2022-11-17T12:56:40.970Z,98849.69
2022-11-17T12:59:46.287Z,98858.38
2022-11-17T13:02:39.698Z,98855.94
2022-11-17T13:05:14.708Z,98860.19
2022-11-17T13:07:43.176Z,98858.75
2022-11-17T13:10:25.604Z,98863.03
2022-11-17T13:13:13.410Z,98868.06
2022-11-17T13:15:43.935Z,98872.94
2022-11-17T13:18:18.963Z,98873.91
2022-11-17T13:20:49.401Z,98878.78
2022-11-17T13:23:22.229Z,98885.66
2022-11-17T13:25:50.727Z,98888.06
2022-11-17T13:28:31.578Z,98883.41
2022-11-17T13:31:01.214Z,98901.00
2022-11-17T13:33:33.329Z,98895.75
2022-11-17T13:36:16.791Z,98892.09
2022-11-17T13:38:50.144Z,98901.41
2022-11-17T13:41:19.167Z,98895.31
2022-11-17T13:43:50.679Z,98899.78
2022-11-17T13:46:18.698Z,98904.03
2022-11-17T13:48:48.216Z,98901.41
2022-11-17T13:51:35.135Z,98901.41
2022-11-17T13:54:07.665Z,98910.91
2022-11-17T13:56:40.466Z,98906.25
2022-11-17T13:59:24.290Z,98905.22
2022-11-17T14:02:26.961Z,98892.09
2022-11-17T14:05:24.259Z,98901.59
2022-11-17T14:07:54.287Z,98902.59
2022-11-17T14:10:32.133Z,98907.84
2022-11-17T14:13:30.059Z,98895.75
2022-11-17T14:16:01.406Z,98905.63
2022-11-17T14:18:32.305Z,98902.41
2022-11-17T14:21:13.791Z,98917.94
2022-11-17T14:23:42.413Z,98918.16
2022-11-17T14:26:29.096Z,98913.88
2022-11-17T14:29:02.258Z,98919.34
2022-11-17T14:31:33.490Z,98918.53
2022-11-17T14:34:01.824Z,98917.53
2022-11-17T14:36:30.695Z,98915.53
2022-11-17T14:38:59.508Z,98919.75
2022-11-17T14:41:27.808Z,98917.91
2022-11-17T14:43:56.006Z,98915.72
2022-11-17T14:46:26.059Z,98908.22
2022-11-17T14:48:56.627Z,98912.47
2022-11-17T14:51:25.798Z,98919.53
2022-11-17T14:53:54.329Z,98914.69
2022-11-17T14:56:24.215Z,98916.50
2022-11-17T14:58:56.038Z,98914.06
2022-11-17T15:01:28.503Z,98922.16
2022-11-17T15:04:00.301Z,98921.72
2022-11-17T15:06:30.625Z,98922.94
2022-11-17T15:09:00.632Z,98916.06
2022-11-17T15:11:35.167Z,98914.44
2022-11-17T15:14:07.467Z,98922.72
2022-11-17T15:16:35.972Z,98924.34
2022-11-17T15:19:06.938Z,98910.34
2022-11-17T15:21:35.126Z,98920.84
2022-11-17T15:24:04.235Z,98927.72
2022-11-17T15:26:32.628Z,98928.72
2022-11-17T15:29:01.240Z,98924.06
2022-11-17T15:31:29.931Z,98941.63
2022-11-17T15:33:58.216Z,98934.38
2022-11-17T15:36:27.751Z,98930.53
2022-11-17T15:38:55.998Z,98926.09
2022-11-17T15:41:26.348Z,98929.31
2022-11-17T15:43:56.888Z,98926.91
2022-11-17T15:46:25.135Z,98926.25
2022-11-17T15:48:53.393Z,98939.22
2022-11-17T15:51:23.428Z,98942.81
2022-11-17T15:53:55.819Z,98942.41
2022-11-17T15:56:25.302Z,98938.78
2022-11-17T15:58:57.432Z,98942.41
2022-11-17T16:01:30.263Z,98947.84
2022-11-17T16:04:00.002Z,98948.25
2022-11-17T16:06:28.614Z,98947.44
2022-11-17T16:08:58.878Z,98949.06
2022-11-17T16:11:27.385Z,98953.50
2022-11-17T16:13:56.256Z,98954.69
2022-11-17T16:16:25.685Z,98952.06
2022-11-17T16:18:53.804Z,98959.91
2022-11-17T16:21:22.155Z,98966.16
2022-11-17T16:23:51.620Z,98961.91
2022-11-17T16:26:22.192Z,98970.19
2022-11-17T16:28:50.446Z,98963.72
2022-11-17T16:31:20.101Z,98961.31
2022-11-17T16:33:49.452Z,98965.94
2022-11-17T16:36:17.726Z,98965.53
2022-11-17T16:39:02.380Z,98966.69
2022-11-17T16:41:33.559Z,98967.91
2022-11-17T16:44:02.924Z,98974.97
2022-11-17T16:46:32.907Z,98967.28
2022-11-17T16:49:03.448Z,98962.44
2022-11-17T16:51:31.896Z,98966.03
2022-11-17T16:54:01.729Z,98962.00
2022-11-17T16:56:31.860Z,98971.88
2022-11-17T16:59:00.056Z,98972.88
2022-11-17T17:01:30.704Z,98973.06
2022-11-17T17:04:00.005Z,98971.47
2022-11-17T17:06:28.941Z,98969.81
2022-11-17T17:08:58.374Z,98971.47
2022-11-17T17:11:27.451Z,98974.47
2022-11-17T17:13:57.614Z,98970.81
2022-11-17T17:16:26.329Z,98974.09
2022-11-17T17:18:59.595Z,98964.56
2022-11-17T17:21:28.924Z,98961.34
2022-11-17T17:23:57.752Z,98967.59
2022-11-17T17:26:27.596Z,98970.22
2022-11-17T17:28:58.989Z,98973.84
2022-11-17T17:31:30.459Z,98973.84
2022-11-17T17:34:00.105Z,98969.78
2022-11-17T17:36:28.867Z,98970.81
2022-11-17T17:38:58.857Z,98976.25
2022-11-17T17:41:29.366Z,98976.25
2022-11-17T17:44:00.517Z,98966.56
2022-11-17T17:46:31.349Z,98979.84
2022-11-17T17:48:59.751Z,98977.22
2022-11-17T17:51:29.528Z,98978.88
2022-11-17T17:54:01.173Z,98985.09
2022-11-17T17:56:30.565Z,98993.75
2022-11-17T17:59:00.697Z,98992.94
2022-11-17T18:01:30.122Z,98997.03
2022-11-17T18:04:04.593Z,99001.44
2022-11-17T18:06:37.464Z,99001.81
2022-11-17T18:09:06.443Z,99004.44
2022-11-17T18:11:35.823Z,98998.59
2022-11-17T18:14:05.487Z,99000.59
2022-11-17T18:16:35.737Z,99013.69
2022-11-17T18:19:05.471Z,99007.44
2022-11-17T18:21:34.185Z,99003.19
2022-11-17T18:24:03.341Z,99004.22
2022-11-17T18:26:33.036Z,99007.44
2022-11-17T18:29:03.044Z,99003.03
2022-11-17T18:31:35.466Z,99009.44
2022-11-17T18:34:06.179Z,99010.03
2022-11-17T18:36:34.856Z,99014.81
2022-11-17T18:39:03.739Z,99023.91
2022-11-17T18:41:34.059Z,99028.50
2022-11-17T18:44:02.711Z,99031.91
2022-11-17T18:46:33.716Z,99038.63
2022-11-17T18:49:02.163Z,99042.41
2022-11-17T18:51:31.823Z,99047.66
2022-11-17T18:54:02.056Z,99051.47
2022-11-17T18:56:33.472Z,99048.03
2022-11-17T18:59:01.404Z,99051.69
2022-11-17T19:01:30.919Z,99048.50
2022-11-17T19:04:01.998Z,99057.75
2022-11-17T19:06:30.634Z,99061.00
2022-11-17T19:08:59.745Z,99065.44
2022-11-17T19:11:33.021Z,99063.81
2022-11-17T19:14:03.067Z,99067.19
2022-11-17T19:16:32.055Z,99066.38
2022-11-17T19:19:01.711Z,99062.97
2022-11-17T19:21:31.848Z,99065.75
2022-11-17T19:24:04.383Z,99060.50
2022-11-17T19:26:33.702Z,99058.53
2022-11-17T19:29:03.965Z,99066.75
2022-11-17T19:31:32.711Z,99080.22
2022-11-17T19:34:02.266Z,99070.13
2022-11-17T19:36:32.441Z,99061.63
2022-11-17T19:39:02.168Z,99071.31
2022-11-17T19:41:32.253Z,99076.38
2022-11-17T19:44:03.978Z,99081.63
2022-11-17T19:46:33.453Z,99085.84
2022-11-17T19:49:03.701Z,99092.34
2022-11-17T19:51:33.742Z,99085.47
2022-11-17T19:54:04.278Z,99088.09
2022-11-17T19:56:33.344Z,99084.03
2022-11-17T19:59:01.618Z,99086.66
2022-11-17T20:01:30.801Z,99093.06
2022-11-17T20:04:00.275Z,99094.88
2022-11-17T20:06:35.487Z,99092.28
2022-11-17T20:09:08.276Z,99090.84
2022-11-17T20:11:36.895Z,99084.59
2022-11-17T20:14:05.448Z,99099.06
2022-11-17T20:16:33.703Z,99099.88
2022-11-17T20:19:03.237Z,99098.47
2022-11-17T20:21:33.773Z,99110.09
2022-11-17T20:24:02.438Z,99106.47
2022-11-17T20:26:32.152Z,99112.38
2022-11-17T20:29:01.084Z,99115.22
2022-11-17T20:31:30.798Z,99112.63
2022-11-17T20:34:00.882Z,99117.66
2022-11-17T20:36:30.937Z,99121.09
2022-11-17T20:39:02.380Z,99119.28
2022-11-17T20:41:31.393Z,99139.50
2022-11-17T20:44:01.865Z,99132.63
2022-11-17T20:46:30.555Z,99140.31
2022-11-17T20:48:58.742Z,99140.13
2022-11-17T20:51:27.220Z,99146.00
2022-11-17T20:53:55.479Z,99139.13
2022-11-17T20:56:25.144Z,99147.19
2022-11-17T20:58:53.411Z,99141.56
2022-11-17T21:01:24.064Z,99149.00
2022-11-17T21:03:52.634Z,99149.00
2022-11-17T21:06:23.210Z,99148.19
2022-11-17T21:08:52.029Z,99146.72
2022-11-17T21:11:39.391Z,99150.81
2022-11-17T21:14:11.193Z,99150.59
2022-11-17T21:16:41.025Z,99160.28
2022-11-17T21:19:09.642Z,99164.72
2022-11-17T21:21:37.742Z,99160.09
2022-11-17T21:24:06.539Z,99161.34
2022-11-17T21:26:35.090Z,99153.47
2022-11-17T21:29:06.630Z,99159.38
2022-11-17T21:31:36.752Z,99169.03
2022-11-17T21:34:06.894Z,99169.22
2022-11-17T21:36:36.689Z,99167.84
2022-11-17T21:39:05.876Z,99169.84
2022-11-17T21:41:36.350Z,99164.22
2022-11-17T21:44:04.949Z,99168.66
2022-11-17T21:46:35.086Z,99166.84
2022-11-17T21:49:04.985Z,99175.34
2022-11-17T21:51:34.582Z,99177.16
2022-11-17T21:54:04.553Z,99168.84
2022-11-17T21:56:32.826Z,99172.28
2022-11-17T21:59:02.726Z,99167.47
2022-11-17T22:01:31.457Z,99166.47
2022-11-17T22:03:59.767Z,99166.66
2022-11-17T22:06:29.702Z,99166.66
2022-11-17T22:08:59.384Z,99166.03
2022-11-17T22:11:38.992Z,99167.03
2022-11-17T22:14:10.553Z,99168.03
2022-11-17T22:16:40.418Z,99168.19
2022-11-17T22:19:09.343Z,99169.03
2022-11-17T22:21:40.107Z,99171.66
2022-11-17T22:24:10.501Z,99184.38
2022-11-17T22:26:41.018Z,99186.38
2022-11-17T22:29:13.120Z,99184.19
2022-11-17T22:31:41.253Z,99183.19
2022-11-17T22:34:09.517Z,99190.06
2022-11-17T22:36:39.201Z,99180.19
2022-11-17T22:39:07.577Z,99186.63
2022-11-17T22:41:35.726Z,99183.63
2022-11-17T22:44:04.083Z,99187.44
2022-11-17T22:46:32.238Z,99190.44
2022-11-17T22:49:00.401Z,99188.81
2022-11-17T22:51:45.562Z,99192.25
2022-11-17T22:54:15.188Z,99188.44
2022-11-17T22:56:43.587Z,99185.81
2022-11-17T22:59:11.768Z,99178.56
2022-11-17T23:01:40.018Z,99178.56
2022-11-17T23:04:08.308Z,99184.19
2022-11-17T23:06:36.536Z,99184.81
2022-11-17T23:09:04.784Z,99180.59
2022-11-17T23:11:38.296Z,99182.41
2022-11-17T23:14:07.676Z,99176.31
2022-11-17T23:16:36.085Z,99186.81
2022-11-17T23:19:05.583Z,99188.00
2022-11-17T23:21:33.798Z,99193.25
2022-11-17T23:24:02.063Z,99194.06
2022-11-17T23:26:30.267Z,99201.09
2022-11-17T23:28:59.969Z,99194.06
2022-11-17T23:31:28.615Z,99191.44
2022-11-17T23:33:56.970Z,99188.00
2022-11-17T23:36:25.744Z,99191.78
2022-11-17T23:38:56.341Z,99202.09
2022-11-17T23:41:24.565Z,99204.72
2022-11-17T23:43:54.252Z,99208.16
2022-11-17T23:46:25.368Z,99209.16
2022-11-17T23:48:54.135Z,99212.59
2022-11-17T23:51:23.979Z,99204.72
2022-11-17T23:53:52.422Z,99209.16
2022-11-17T23:56:21.227Z,99218.00
2022-11-17T23:58:49.883Z,99219.66
